Time;durP1;ratioP1;P1;durP2;ratioP2;P2;SDS_P1;SDS_P2;PMS_P1;PMS_P2;Temp;Humidity;BMP_temperature;BMP_pressure;BME280_temperature;BME280_humidity;BME280_pressure;Samples;Min_cycle;Max_cycle;Signal;HPM_P1;HPM_P2
2022/08/06 00:02:09;;;;;;;;;;;14.90;95.00;;;;;;5075448;28;20055;-73
2022/08/06 00:04:34;;;;;;;;;;;14.90;95.30;;;;;;5082429;28;20374;-73
2022/08/06 00:07:00;;;;;;;;;;;14.90;95.40;;;;;;5083374;28;20080;-73
2022/08/06 00:09:30;;;;;;;;;;;14.80;95.30;;;;;;5089605;28;19920;-73
2022/08/06 00:12:03;;;;;;;;;;;14.80;95.40;;;;;;5089457;28;19919;-73
2022/08/06 00:14:29;;;;;;;;;;;14.80;95.70;;;;;;5089025;28;19969;-72
2022/08/06 00:16:55;;;;;;;;;;;14.80;95.80;;;;;;5088739;28;19920;-71
2022/08/06 00:19:21;;;;;;;;;;;14.80;95.80;;;;;;5089195;28;19973;-73
2022/08/06 00:21:47;;;;;;;;;;;14.80;95.80;;;;;;5073794;28;19971;-73
2022/08/06 00:24:13;;;;;;;;;;;14.80;95.80;;;;;;5077991;28;19920;-73
2022/08/06 00:26:39;;;;;;;;;;;14.80;95.70;;;;;;5075544;28;19921;-73
2022/08/06 00:29:05;;;;;;;;;;;14.80;96.00;;;;;;5080189;28;20395;-73
2022/08/06 00:31:30;;;;;;;;;;;14.80;95.80;;;;;;5082795;28;19966;-72
2022/08/06 00:33:56;;;;;;;;;;;14.80;95.90;;;;;;5077675;28;19926;-72
2022/08/06 00:36:25;;;;;;;;;;;14.80;96.00;;;;;;5086983;28;19969;-71
2022/08/06 00:38:51;;;;;;;;;;;14.80;96.10;;;;;;5078382;28;19920;-73
2022/08/06 00:41:17;;;;;;;;;;;14.70;96.30;;;;;;5073481;28;19920;-71
2022/08/06 00:43:42;;;;;;;;;;;14.70;96.20;;;;;;5070533;28;19924;-70
2022/08/06 00:46:08;;;;;;;;;;;14.70;96.30;;;;;;5091180;28;19942;-71
2022/08/06 00:48:33;;;;;;;;;;;14.70;96.30;;;;;;5082888;28;19924;-72
2022/08/06 00:50:59;;;;;;;;;;;14.60;96.30;;;;;;5088817;28;20283;-72
2022/08/06 00:53:24;;;;;;;;;;;14.60;96.50;;;;;;5083014;28;20608;-72
2022/08/06 00:55:50;;;;;;;;;;;14.50;96.60;;;;;;5088153;28;19920;-72
2022/08/06 00:58:15;;;;;;;;;;;14.40;96.70;;;;;;5092303;28;19920;-73
2022/08/06 01:00:41;;;;;;;;;;;14.50;96.80;;;;;;5077408;28;19928;-74
2022/08/06 01:03:07;;;;;;;;;;;14.40;96.90;;;;;;5072429;28;19924;-73
2022/08/06 01:05:32;;;;;;;;;;;14.40;96.80;;;;;;5069485;28;19920;-73
2022/08/06 01:07:58;;;;;;;;;;;14.40;96.90;;;;;;5082999;28;20290;-73
2022/08/06 01:10:23;;;;;;;;;;;14.30;97.00;;;;;;5073553;28;20361;-74
2022/08/06 01:12:49;;;;;;;;;;;14.30;97.10;;;;;;5063726;28;20437;-72
2022/08/06 01:15:15;;;;;;;;;;;14.30;97.00;;;;;;5091711;28;19920;-73
2022/08/06 01:17:55;;;;;;;;;;;14.20;97.10;;;;;;5083126;28;19924;-73
2022/08/06 01:20:39;;;;;;;;;;;14.20;97.30;;;;;;5085438;28;19990;-73
2022/08/06 01:23:27;;;;;;;;;;;14.10;97.40;;;;;;5085472;28;20350;-73
2022/08/06 01:25:59;;;;;;;;;;;14.20;97.70;;;;;;5082490;28;20011;-73
2022/08/06 01:28:26;;;;;;;;;;;14.10;97.60;;;;;;5074122;28;19971;-73
2022/08/06 01:30:54;;;;;;;;;;;14.10;97.80;;;;;;5072337;28;20015;-72
2022/08/06 01:33:27;;;;;;;;;;;14.00;97.80;;;;;;5071497;28;19920;-73
2022/08/06 01:35:54;;;;;;;;;;;14.00;97.90;;;;;;5079526;28;19920;-73
2022/08/06 01:38:29;;;;;;;;;;;14.00;98.00;;;;;;5083907;28;20394;-73
2022/08/06 01:40:57;;;;;;;;;;;13.90;98.20;;;;;;5089472;28;19966;-71
2022/08/06 01:43:24;;;;;;;;;;;13.90;98.40;;;;;;5091128;28;19927;-73
2022/08/06 01:45:51;;;;;;;;;;;13.90;98.70;;;;;;5091466;28;19924;-71
2022/08/06 01:48:17;;;;;;;;;;;13.90;98.90;;;;;;5070111;28;19973;-72
2022/08/06 01:50:45;;;;;;;;;;;13.90;99.00;;;;;;5091351;28;20294;-72
2022/08/06 01:53:13;;;;;;;;;;;13.90;99.00;;;;;;5090859;28;19928;-72
2022/08/06 01:55:43;;;;;;;;;;;13.90;99.10;;;;;;5087540;28;19928;-72
2022/08/06 01:58:09;;;;;;;;;;;13.80;99.30;;;;;;5057671;28;19974;-72
2022/08/06 02:00:36;;;;;;;;;;;13.80;99.50;;;;;;5083312;28;20379;-71
2022/08/06 02:03:05;;;;;;;;;;;13.80;99.60;;;;;;5070713;28;20010;-71
2022/08/06 02:05:33;;;;;;;;;;;13.80;99.70;;;;;;5070974;28;19928;-72
2022/08/06 02:08:00;;;;;;;;;;;13.80;99.80;;;;;;5085364;28;19981;-70
2022/08/06 02:10:27;;;;;;;;;;;13.80;99.80;;;;;;5091108;28;19949;-72
2022/08/06 02:12:53;;;;;;;;;;;13.70;99.90;;;;;;5087688;28;19927;-72
2022/08/06 02:15:22;;;;;;;;;;;13.70;99.90;;;;;;5090924;28;19920;-71
2022/08/06 02:17:53;;;;;;;;;;;13.70;99.90;;;;;;5090900;28;19920;-70
2022/08/06 02:20:40;;;;;;;;;;;13.70;99.90;;;;;;5090191;28;19920;-70
2022/08/06 02:23:07;;;;;;;;;;;13.70;99.90;;;;;;5090871;28;19923;-70
2022/08/06 02:25:34;;;;;;;;;;;13.70;99.90;;;;;;5089755;28;19923;-70
2022/08/06 02:28:00;;;;;;;;;;;13.60;99.90;;;;;;5090877;28;19920;-70
2022/08/06 02:30:32;;;;;;;;;;;13.60;99.90;;;;;;5090481;28;19923;-70
2022/08/06 02:32:57;;;;;;;;;;;13.60;99.90;;;;;;5089892;28;19920;-72
2022/08/06 02:35:23;;;;;;;;;;;13.50;99.90;;;;;;5089806;28;19927;-70
2022/08/06 02:37:53;;;;;;;;;;;13.60;99.90;;;;;;5088496;28;19920;-72
2022/08/06 02:40:23;;;;;;;;;;;13.50;99.90;;;;;;5060399;28;19920;-70
2022/08/06 02:42:52;;;;;;;;;;;13.50;99.90;;;;;;5089191;28;20374;-71
2022/08/06 02:45:20;;;;;;;;;;;13.50;99.90;;;;;;5079184;28;19924;-70
2022/08/06 02:47:55;;;;;;;;;;;13.50;99.90;;;;;;5085486;28;19927;-70
2022/08/06 02:50:23;;;;;;;;;;;13.50;99.90;;;;;;5078790;28;19920;-71
2022/08/06 02:52:52;;;;;;;;;;;13.50;99.90;;;;;;5090553;28;20336;-71
2022/08/06 02:55:19;;;;;;;;;;;13.50;99.90;;;;;;5090320;28;19930;-70
2022/08/06 02:57:49;;;;;;;;;;;13.40;99.90;;;;;;5075892;28;19928;-70
2022/08/06 03:00:15;;;;;;;;;;;13.40;99.90;;;;;;5089901;28;20300;-71
2022/08/06 03:02:41;;;;;;;;;;;13.40;99.90;;;;;;5089994;28;20011;-71
2022/08/06 03:05:10;;;;;;;;;;;13.40;99.90;;;;;;5090155;28;19927;-70
2022/08/06 03:07:38;;;;;;;;;;;13.40;99.90;;;;;;5089886;28;19920;-71
2022/08/06 03:10:04;;;;;;;;;;;13.40;99.90;;;;;;5090152;28;20051;-70
2022/08/06 03:12:30;;;;;;;;;;;13.40;99.90;;;;;;5076291;28;20010;-70
2022/08/06 03:14:57;;;;;;;;;;;13.30;99.90;;;;;;5079141;28;20539;-71
2022/08/06 03:17:23;;;;;;;;;;;13.30;99.90;;;;;;5070105;28;19920;-70
2022/08/06 03:19:49;;;;;;;;;;;13.30;99.90;;;;;;5069998;28;19931;-71
2022/08/06 03:22:16;;;;;;;;;;;13.20;99.90;;;;;;5087622;28;19954;-71
2022/08/06 03:24:42;;;;;;;;;;;13.30;99.90;;;;;;5089269;28;19920;-70
2022/08/06 03:27:08;;;;;;;;;;;13.20;99.90;;;;;;5088610;28;19967;-72
2022/08/06 03:29:35;;;;;;;;;;;13.20;99.90;;;;;;5089477;28;19978;-71
2022/08/06 03:32:01;;;;;;;;;;;13.20;99.90;;;;;;5087713;28;20161;-72
2022/08/06 03:34:28;;;;;;;;;;;13.10;99.90;;;;;;5089076;28;19924;-71
2022/08/06 03:36:54;;;;;;;;;;;13.10;99.90;;;;;;5087773;28;19920;-71
2022/08/06 03:39:20;;;;;;;;;;;13.20;99.90;;;;;;5088524;28;20004;-71
2022/08/06 03:41:46;;;;;;;;;;;13.20;99.90;;;;;;5087630;28;19926;-71
2022/08/06 03:44:12;;;;;;;;;;;13.20;99.90;;;;;;5089497;28;20488;-71
2022/08/06 03:46:46;;;;;;;;;;;13.10;99.90;;;;;;5085544;28;20007;-72
2022/08/06 03:49:27;;;;;;;;;;;13.10;99.90;;;;;;5089597;28;19920;-71
2022/08/06 03:51:54;;;;;;;;;;;13.10;99.90;;;;;;5077136;28;19966;-71
2022/08/06 03:54:32;;;;;;;;;;;13.10;99.90;;;;;;5088936;28;20022;-71
2022/08/06 03:57:00;;;;;;;;;;;13.10;99.90;;;;;;5089196;28;20364;-72
2022/08/06 03:59:27;;;;;;;;;;;13.20;99.90;;;;;;5088355;28;19928;-72
2022/08/06 04:01:53;;;;;;;;;;;13.20;99.90;;;;;;5088619;28;20378;-72
2022/08/06 04:04:19;;;;;;;;;;;13.10;99.90;;;;;;5089077;28;19927;-71
2022/08/06 04:06:45;;;;;;;;;;;13.10;99.90;;;;;;5088696;28;19973;-72
2022/08/06 04:09:11;;;;;;;;;;;13.10;99.90;;;;;;5088928;28;19920;-71
2022/08/06 04:11:37;;;;;;;;;;;13.10;99.90;;;;;;5088519;28;20339;-71
2022/08/06 04:14:04;;;;;;;;;;;13.10;99.90;;;;;;5087451;28;19919;-71
2022/08/06 04:16:30;;;;;;;;;;;13.10;99.90;;;;;;5088725;28;19920;-72
2022/08/06 04:18:56;;;;;;;;;;;13.10;99.90;;;;;;5087730;28;19927;-72
2022/08/06 04:21:22;;;;;;;;;;;13.20;99.90;;;;;;5091259;28;19920;-71
2022/08/06 04:23:48;;;;;;;;;;;13.10;99.90;;;;;;5092419;28;19928;-72
2022/08/06 04:26:17;;;;;;;;;;;13.10;99.90;;;;;;5092805;28;19927;-72
2022/08/06 04:28:45;;;;;;;;;;;13.10;99.90;;;;;;5092593;28;19927;-72
2022/08/06 04:31:12;;;;;;;;;;;13.10;99.90;;;;;;5092616;28;19924;-71
2022/08/06 04:33:39;;;;;;;;;;;13.10;99.90;;;;;;5091550;28;20429;-71
2022/08/06 04:36:05;;;;;;;;;;;13.10;99.90;;;;;;5092911;28;19970;-72
2022/08/06 04:38:31;;;;;;;;;;;13.20;99.90;;;;;;5091884;28;19928;-70
2022/08/06 04:40:57;;;;;;;;;;;13.30;99.90;;;;;;5092934;28;19927;-71
2022/08/06 04:43:23;;;;;;;;;;;13.30;99.90;;;;;;5091966;28;19920;-71
2022/08/06 04:45:49;;;;;;;;;;;13.40;99.90;;;;;;5092477;28;19919;-72
2022/08/06 04:48:15;;;;;;;;;;;13.40;99.90;;;;;;5089103;28;19923;-70
2022/08/06 04:50:41;;;;;;;;;;;13.40;99.90;;;;;;5092884;28;19959;-71
2022/08/06 04:53:11;;;;;;;;;;;13.40;99.90;;;;;;5092606;28;19959;-72
2022/08/06 04:55:37;;;;;;;;;;;13.40;99.90;;;;;;5091622;28;19931;-73
2022/08/06 04:58:03;;;;;;;;;;;13.50;99.90;;;;;;5091889;28;19946;-72
2022/08/06 05:00:30;;;;;;;;;;;13.50;99.90;;;;;;5080599;28;19924;-72
2022/08/06 05:02:55;;;;;;;;;;;13.50;99.90;;;;;;5091173;28;20025;-71
2022/08/06 05:05:22;;;;;;;;;;;13.60;99.90;;;;;;5062540;28;19942;-71
2022/08/06 05:07:50;;;;;;;;;;;13.70;99.90;;;;;;5090676;28;19920;-71
2022/08/06 05:10:15;;;;;;;;;;;13.70;99.90;;;;;;5080273;28;19978;-71
2022/08/06 05:12:46;;;;;;;;;;;13.80;99.90;;;;;;5086003;28;20819;-71
2022/08/06 05:15:18;;;;;;;;;;;13.90;99.90;;;;;;5072120;28;19927;-70
2022/08/06 05:17:49;;;;;;;;;;;14.00;99.90;;;;;;5071911;28;20126;-70
2022/08/06 05:20:16;;;;;;;;;;;14.00;99.90;;;;;;5067860;28;19920;-72
2022/08/06 05:22:43;;;;;;;;;;;14.10;99.90;;;;;;5091009;28;19974;-70
2022/08/06 05:25:09;;;;;;;;;;;14.10;99.90;;;;;;5091879;28;19989;-72
2022/08/06 05:27:34;;;;;;;;;;;14.20;99.90;;;;;;5083943;28;19920;-70
2022/08/06 05:30:01;;;;;;;;;;;14.20;99.90;;;;;;5085689;28;19920;-71
2022/08/06 05:32:26;;;;;;;;;;;14.10;99.90;;;;;;5079634;28;19924;-71
2022/08/06 05:34:52;;;;;;;;;;;14.20;99.90;;;;;;5091027;28;19920;-72
2022/08/06 05:37:17;;;;;;;;;;;14.30;99.90;;;;;;5080354;28;19930;-70
2022/08/06 05:39:43;;;;;;;;;;;14.40;99.90;;;;;;5091353;28;20492;-70
2022/08/06 05:42:08;;;;;;;;;;;14.50;99.90;;;;;;5084203;28;19973;-70
2022/08/06 05:44:34;;;;;;;;;;;14.60;99.90;;;;;;5056438;28;19927;-72
2022/08/06 05:47:04;;;;;;;;;;;14.70;99.90;;;;;;5073595;28;19924;-72
2022/08/06 05:49:44;;;;;;;;;;;14.80;99.90;;;;;;5076549;28;19968;-71
2022/08/06 05:52:21;;;;;;;;;;;14.90;99.90;;;;;;5081876;28;19963;-71
2022/08/06 05:54:59;;;;;;;;;;;15.00;99.90;;;;;;5075336;28;19919;-71
2022/08/06 05:57:28;;;;;;;;;;;15.10;99.90;;;;;;5073878;28;19927;-71
2022/08/06 05:59:56;;;;;;;;;;;15.10;99.90;;;;;;5074352;28;19920;-71
2022/08/06 06:02:22;;;;;;;;;;;15.20;99.90;;;;;;5071874;28;19924;-71
2022/08/06 06:04:48;;;;;;;;;;;15.20;99.90;;;;;;5075319;28;20359;-71
2022/08/06 06:07:14;;;;;;;;;;;15.10;99.90;;;;;;5074578;28;19920;-71
2022/08/06 06:09:41;;;;;;;;;;;15.10;99.90;;;;;;5075113;28;19969;-71
2022/08/06 06:12:06;;;;;;;;;;;15.10;99.90;;;;;;5073465;28;19920;-71
2022/08/06 06:14:40;;;;;;;;;;;15.20;99.90;;;;;;5073312;28;20448;-71
2022/08/06 06:17:15;;;;;;;;;;;15.30;99.90;;;;;;5075078;28;19934;-71
2022/08/06 06:19:56;;;;;;;;;;;15.40;99.90;;;;;;5073998;28;20337;-72
2022/08/06 06:22:27;;;;;;;;;;;15.60;99.90;;;;;;5075612;28;20658;-72
2022/08/06 06:24:59;;;;;;;;;;;15.70;99.90;;;;;;5071816;28;19936;-72
2022/08/06 06:27:29;;;;;;;;;;;15.80;99.90;;;;;;5070517;28;19924;-71
2022/08/06 06:30:01;;;;;;;;;;;15.80;99.90;;;;;;5070349;28;20437;-71
2022/08/06 06:32:35;;;;;;;;;;;16.00;99.90;;;;;;5073005;28;19947;-71
2022/08/06 06:35:21;;;;;;;;;;;16.20;99.90;;;;;;5075534;28;19970;-72
2022/08/06 06:38:00;;;;;;;;;;;16.40;99.90;;;;;;5070758;28;19972;-72
2022/08/06 06:40:38;;;;;;;;;;;16.50;99.90;;;;;;5070004;28;20973;-71
2022/08/06 06:43:08;;;;;;;;;;;16.50;99.90;;;;;;5071331;28;19924;-71
2022/08/06 06:45:33;;;;;;;;;;;16.60;99.90;;;;;;5077111;28;20021;-71
2022/08/06 06:48:06;;;;;;;;;;;16.50;99.90;;;;;;5056466;28;19982;-71
2022/08/06 06:50:34;;;;;;;;;;;16.50;99.90;;;;;;5070028;28;20012;-71
2022/08/06 06:53:00;;;;;;;;;;;16.60;99.90;;;;;;5077534;28;20036;-71
2022/08/06 06:55:33;;;;;;;;;;;16.60;99.90;;;;;;5083771;28;20010;-72
2022/08/06 06:58:17;;;;;;;;;;;16.60;99.90;;;;;;5082528;28;19928;-71
2022/08/06 07:00:43;;;;;;;;;;;16.60;99.90;;;;;;5081266;28;19920;-70
2022/08/06 07:03:10;;;;;;;;;;;16.60;99.90;;;;;;5090406;28;20309;-71
2022/08/06 07:05:36;;;;;;;;;;;16.60;99.90;;;;;;5090168;28;19924;-71
2022/08/06 07:08:03;;;;;;;;;;;16.70;99.90;;;;;;5090183;28;19920;-71
2022/08/06 07:10:29;;;;;;;;;;;16.80;99.90;;;;;;5090370;28;19924;-71
2022/08/06 07:12:56;;;;;;;;;;;16.80;99.90;;;;;;5071937;28;19927;-72
2022/08/06 07:15:22;;;;;;;;;;;16.90;99.90;;;;;;5089909;28;19924;-71
2022/08/06 07:17:49;;;;;;;;;;;16.90;99.90;;;;;;5089845;28;19927;-71
2022/08/06 07:20:17;;;;;;;;;;;17.00;99.90;;;;;;5089915;28;19920;-71
2022/08/06 07:22:43;;;;;;;;;;;17.10;99.90;;;;;;5086457;28;20401;-71
2022/08/06 07:25:11;;;;;;;;;;;17.20;99.90;;;;;;5090091;28;19920;-71
2022/08/06 07:27:38;;;;;;;;;;;17.30;99.90;;;;;;5089528;28;19927;-71
2022/08/06 07:30:05;;;;;;;;;;;17.40;99.90;;;;;;5069357;28;19931;-71
2022/08/06 07:32:31;;;;;;;;;;;17.60;99.90;;;;;;5079900;28;20331;-71
2022/08/06 07:34:57;;;;;;;;;;;17.80;99.40;;;;;;5088244;28;19962;-71
2022/08/06 07:37:24;;;;;;;;;;;17.90;99.60;;;;;;5088025;28;19959;-71
2022/08/06 07:39:51;;;;;;;;;;;18.10;99.40;;;;;;5087743;28;19974;-71
2022/08/06 07:42:17;;;;;;;;;;;18.30;99.30;;;;;;5086657;28;19923;-71
2022/08/06 07:44:43;;;;;;;;;;;18.50;98.80;;;;;;5087409;28;20104;-72
2022/08/06 07:47:12;;;;;;;;;;;18.80;98.40;;;;;;5087044;28;19999;-71
2022/08/06 07:49:40;;;;;;;;;;;19.00;97.50;;;;;;5078178;28;19931;-71
2022/08/06 07:52:07;;;;;;;;;;;19.10;96.90;;;;;;5082036;28;19920;-71
2022/08/06 07:54:32;;;;;;;;;;;19.00;96.80;;;;;;5071545;28;19927;-71
2022/08/06 07:56:58;;;;;;;;;;;18.90;96.70;;;;;;5082579;28;20010;-71
2022/08/06 07:59:24;;;;;;;;;;;18.80;96.90;;;;;;5088337;28;19932;-71
2022/08/06 08:01:50;;;;;;;;;;;18.70;97.10;;;;;;5087504;28;19924;-71
2022/08/06 08:07:02;;;;;;;;;;;18.50;97.50;;;;;;5061443;28;20367;-71
2022/08/06 08:09:28;;;;;;;;;;;18.40;98.20;;;;;;5092750;28;19927;-71
2022/08/06 08:11:55;;;;;;;;;;;18.30;98.20;;;;;;5090733;28;19920;-71
2022/08/06 08:14:21;;;;;;;;;;;18.10;98.80;;;;;;5093016;28;19920;-71
2022/08/06 08:16:47;;;;;;;;;;;17.90;99.10;;;;;;5070955;28;19927;-72
2022/08/06 08:19:22;;;;;;;;;;;17.80;99.50;;;;;;5074385;28;20274;-72
2022/08/06 08:21:48;;;;;;;;;;;17.60;99.90;;;;;;5079568;28;19924;-71
2022/08/06 08:24:13;;;;;;;;;;;17.60;99.90;;;;;;5093531;28;19927;-71
2022/08/06 08:26:39;;;;;;;;;;;17.60;99.90;;;;;;5086274;28;20658;-71
2022/08/06 08:29:04;;;;;;;;;;;17.50;99.90;;;;;;5059578;28;19920;-71
2022/08/06 08:31:30;;;;;;;;;;;17.50;99.90;;;;;;5072394;28;20310;-72
2022/08/06 08:33:55;;;;;;;;;;;17.50;99.90;;;;;;5077797;28;19920;-71
2022/08/06 08:36:23;;;;;;;;;;;17.50;99.90;;;;;;5075865;28;20340;-71
2022/08/06 08:38:48;;;;;;;;;;;17.60;99.90;;;;;;5088495;28;19920;-71
2022/08/06 08:41:20;;;;;;;;;;;17.60;99.90;;;;;;5088653;28;19920;-71
2022/08/06 08:43:48;;;;;;;;;;;17.70;99.90;;;;;;5090171;28;19924;-71
2022/08/06 08:46:14;;;;;;;;;;;17.80;99.90;;;;;;5084688;28;19920;-71
2022/08/06 08:48:40;;;;;;;;;;;18.10;99.90;;;;;;5091794;28;20370;-69
2022/08/06 08:51:07;;;;;;;;;;;18.30;99.90;;;;;;5082371;28;19920;-72
2022/08/06 08:53:37;;;;;;;;;;;18.60;99.90;;;;;;5085156;28;19973;-72
2022/08/06 08:56:03;;;;;;;;;;;18.90;99.40;;;;;;5087905;28;20451;-72
2022/08/06 08:58:31;;;;;;;;;;;19.10;97.90;;;;;;5067017;28;19973;-71
2022/08/06 09:00:57;;;;;;;;;;;19.00;98.10;;;;;;5090727;28;19928;-72
2022/08/06 09:03:23;;;;;;;;;;;18.90;97.50;;;;;;5089605;28;19920;-71
2022/08/06 09:05:49;;;;;;;;;;;18.80;97.10;;;;;;5085224;28;19920;-71
2022/08/06 09:08:14;;;;;;;;;;;18.80;97.30;;;;;;5091044;28;19920;-71
2022/08/06 09:10:41;;;;;;;;;;;18.90;97.50;;;;;;5085728;28;19934;-72
2022/08/06 09:13:06;;;;;;;;;;;19.10;97.00;;;;;;5092185;28;20419;-72
2022/08/06 09:15:32;;;;;;;;;;;19.40;96.40;;;;;;5071864;28;19958;-72
2022/08/06 09:17:57;;;;;;;;;;;19.60;95.70;;;;;;5091989;28;20278;-71
2022/08/06 09:20:23;;;;;;;;;;;19.60;95.30;;;;;;5091243;28;19920;-71
2022/08/06 09:22:52;;;;;;;;;;;19.50;94.90;;;;;;5074036;28;19926;-71
2022/08/06 09:25:37;;;;;;;;;;;19.30;94.90;;;;;;5091690;28;19919;-73
2022/08/06 09:28:08;;;;;;;;;;;19.10;94.90;;;;;;5091582;28;19926;-73
2022/08/06 09:30:33;;;;;;;;;;;18.90;95.30;;;;;;5091021;28;19963;-72
2022/08/06 09:32:59;;;;;;;;;;;18.70;95.60;;;;;;5091413;28;20743;-73
2022/08/06 09:35:25;;;;;;;;;;;18.60;95.60;;;;;;5087611;28;19924;-72
2022/08/06 09:37:59;;;;;;;;;;;18.80;96.40;;;;;;5084298;28;19920;-73
2022/08/06 09:40:24;;;;;;;;;;;19.40;96.40;;;;;;5087024;28;20401;-73
2022/08/06 09:42:50;;;;;;;3.10;0.70;;;20.10;95.50;;;;;;5090703;28;20033;-72
2022/08/06 09:45:19;;;;;;;3.30;0.80;;;20.80;94.30;;;;;;5087501;28;20047;-73
2022/08/06 09:47:47;;;;;;;1.85;0.80;;;21.50;94.10;;;;;;5084560;28;20901;-72
2022/08/06 09:50:13;;;;;;;3.53;1.05;;;21.90;92.70;;;;;;5070418;28;20406;-72
2022/08/06 09:52:39;;;;;;;2.47;0.80;;;22.20;91.70;;;;;;5088677;28;20055;-71
2022/08/06 09:55:05;;;;;;;;;;;22.50;91.20;;;;;;5090370;28;20036;-73
2022/08/06 09:57:45;;;;;;;0.90;0.40;;;22.90;90.10;;;;;;5089258;28;19920;-73
2022/08/06 10:00:24;;;;;;;1.85;0.73;;;23.30;87.80;;;;;;5079196;28;20780;-73
2022/08/06 10:02:49;;;;;;;;;;;23.70;85.70;;;;;;5090264;28;20051;-73
2022/08/06 10:05:15;;;;;;;2.28;0.80;;;24.10;84.10;;;;;;5070917;28;19920;-73
2022/08/06 10:07:41;;;;;;;4.75;1.10;;;24.50;82.90;;;;;;5084953;28;20802;-72
2022/08/06 10:10:07;;;;;;;3.13;1.10;;;24.60;82.00;;;;;;5071877;28;20477;-72
2022/08/06 10:12:33;;;;;;;2.72;1.13;;;24.30;78.20;;;;;;5073835;28;20421;-72
2022/08/06 10:14:59;;;;;;;3.15;1.17;;;23.90;79.50;;;;;;5088636;28;20898;-72
2022/08/06 10:17:26;;;;;;;4.05;1.20;;;24.10;80.60;;;;;;5074171;28;20410;-72
2022/08/06 10:20:05;;;;;;;;;;;24.50;80.70;;;;;;5090700;28;20040;-72
2022/08/06 10:22:31;;;;;;;;;;;24.80;78.80;;;;;;5079408;28;20275;-72
2022/08/06 10:25:01;;;;;;;;;;;24.60;75.40;;;;;;5083909;28;19931;-72
2022/08/06 10:27:28;;;;;;;;;;;24.30;74.80;;;;;;5087426;28;19955;-72
2022/08/06 10:29:55;;;;;;;;;;;24.10;74.90;;;;;;5081113;28;19920;-71
2022/08/06 10:32:28;;;;;;;;;;;23.80;75.20;;;;;;5087034;28;19927;-71
2022/08/06 10:34:55;;;;;;;;;;;24.00;76.40;;;;;;5083324;28;19920;-72
2022/08/06 10:37:21;;;;;;;;;;;24.40;74.40;;;;;;5087132;28;19924;-72
2022/08/06 10:39:52;;;;;;;3.08;1.10;;;24.80;72.10;;;;;;5072646;28;19927;-72
2022/08/06 10:42:19;;;;;;;1.90;1.02;;;25.20;72.80;;;;;;5082683;28;20116;-71
2022/08/06 10:44:45;;;;;;;2.58;1.27;;;25.60;71.60;;;;;;5083987;28;20048;-72
2022/08/06 10:47:11;;;;;;;2.90;1.50;;;25.80;71.30;;;;;;5079824;28;20427;-72
2022/08/06 10:49:38;;;;;;;2.80;1.33;;;25.70;70.00;;;;;;5084566;28;20506;-72
2022/08/06 10:52:04;;;;;;;4.13;1.65;;;25.70;70.10;;;;;;5088618;28;20509;-71
2022/08/06 10:54:31;;;;;;;3.10;1.67;;;25.90;68.90;;;;;;5089943;28;20040;-71
2022/08/06 10:56:57;;;;;;;;;;;26.00;66.10;;;;;;5090367;28;20036;-72
2022/08/06 10:59:23;;;;;;;2.58;1.30;;;25.90;65.60;;;;;;5076324;28;19999;-71
2022/08/06 11:01:55;;;;;;;4.00;1.40;;;26.00;63.80;;;;;;5087693;28;20040;-73
2022/08/06 11:04:40;;;;;;;4.28;1.50;;;26.30;65.50;;;;;;5086452;28;20032;-73
2022/08/06 11:07:24;;;;;;;;;;;26.50;64.60;;;;;;5090431;28;20754;-72
2022/08/06 11:10:32;;;;;;;2.42;1.50;;;26.50;64.00;;;;;;5089205;28;19972;-72
2022/08/06 11:13:27;;;;;;;3.17;1.75;;;26.80;64.80;;;;;;5026233;28;20452;-72
2022/08/06 11:15:54;;;;;;;2.75;1.70;;;27.10;63.70;;;;;;5085849;28;20440;-72
2022/08/06 11:18:21;;;;;;;3.47;1.88;;;27.40;63.60;;;;;;5079512;28;20052;-72
2022/08/06 11:20:49;;;;;;;3.00;1.63;;;27.50;62.10;;;;;;5053900;28;20102;-72
2022/08/06 11:23:14;;;;;;;;;;;27.70;61.70;;;;;;5076839;28;20049;-72
2022/08/06 11:25:41;;;;;;;;;;;27.70;60.00;;;;;;5055412;28;19923;-71
2022/08/06 11:28:08;;;;;;;;;;;27.60;59.10;;;;;;5071662;28;19940;-73
2022/08/06 11:30:50;;;;;;;5.18;1.80;;;27.40;59.00;;;;;;5072881;28;19925;-72
2022/08/06 11:33:19;;;;;;;;;;;27.40;59.60;;;;;;5073915;28;20036;-72
2022/08/06 11:35:48;;;;;;;;;;;27.50;58.00;;;;;;5073433;28;19920;-73
2022/08/06 11:38:15;;;;;;;;;;;27.60;59.00;;;;;;5070693;28;19973;-72
2022/08/06 11:41:00;;;;;;;;;;;27.40;58.40;;;;;;5072765;28;19927;-72
2022/08/06 11:43:37;;;;;;;;;;;26.90;58.00;;;;;;5072785;28;20337;-72
2022/08/06 11:46:36;;;;;;;;;;;26.70;57.80;;;;;;5084334;28;19946;-72
2022/08/06 11:49:03;;;;;;;2.70;1.73;;;27.00;58.40;;;;;;5033280;28;19920;-72
2022/08/06 11:51:54;;;;;;;5.07;2.00;;;27.40;57.80;;;;;;5085417;28;20410;-72
2022/08/06 11:54:23;;;;;;;;;;;27.20;56.80;;;;;;5089358;28;20055;-71
2022/08/06 11:57:01;;;;;;;2.63;1.95;;;27.00;57.00;;;;;;5082047;28;19921;-71
2022/08/06 11:59:55;;;;;;;2.50;1.67;;;27.20;56.50;;;;;;5071832;28;20043;-72
2022/08/06 12:02:39;;;;;;;;;;;27.50;56.40;;;;;;5084767;28;20062;-72
2022/08/06 12:05:06;;;;;;;2.90;1.75;;;27.90;55.70;;;;;;5085166;28;19980;-72
2022/08/06 12:07:36;;;;;;;5.35;2.40;;;28.30;56.20;;;;;;5087521;28;20405;-71
2022/08/06 12:10:04;;;;;;;3.43;1.90;;;28.40;55.70;;;;;;5079172;28;20421;-71
2022/08/06 12:12:42;;;;;;;3.03;2.20;;;28.00;54.90;;;;;;5075069;28;20774;-72
2022/08/06 12:15:19;;;;;;;3.38;1.90;;;27.70;55.20;;;;;;5087973;28;20780;-71
2022/08/06 12:17:56;;;;;;;3.42;2.05;;;27.70;54.70;;;;;;5086899;28;20402;-71
2022/08/06 12:20:37;;;;;;;3.17;2.13;;;27.60;54.40;;;;;;5083148;28;20424;-71
2022/08/06 12:23:05;;;;;;;4.40;2.22;;;27.50;55.10;;;;;;5078451;28;20406;-72
2022/08/06 12:25:33;;;;;;;3.40;2.05;;;27.60;55.60;;;;;;5087471;28;20693;-71
2022/08/06 12:27:59;;;;;;;2.95;1.88;;;28.00;55.10;;;;;;5066794;28;20164;-72
2022/08/06 12:30:25;;;;;;;3.47;2.00;;;28.00;54.30;;;;;;5086033;28;20398;-71
2022/08/06 12:33:00;;;;;;;3.30;2.03;;;27.90;53.90;;;;;;5087074;28;20963;-71
2022/08/06 12:35:26;;;;;;;2.80;2.03;;;28.00;52.80;;;;;;5084547;28;20791;-72
2022/08/06 12:37:52;;;;;;;3.13;1.95;;;28.00;51.90;;;;;;5086144;28;20945;-72
2022/08/06 12:40:23;;;;;;;2.55;2.10;;;27.90;52.70;;;;;;5087230;28;21032;-72
2022/08/06 12:42:49;;;;;;;4.72;2.00;;;28.00;52.50;;;;;;5086440;28;20475;-71
2022/08/06 12:45:20;;;;;;;6.97;2.78;;;28.10;52.90;;;;;;5091293;28;20495;-71
2022/08/06 12:47:57;;;;;;;;;;;28.20;53.60;;;;;;5089247;28;20406;-71
2022/08/06 12:50:22;;;;;;;;;;;28.50;53.30;;;;;;5074291;28;20531;-71
2022/08/06 12:53:05;;;;;;;2.88;1.70;;;28.80;52.20;;;;;;5089857;28;20024;-71
2022/08/06 12:55:31;;;;;;;;;;;28.90;52.00;;;;;;5080997;28;20046;-72
2022/08/06 12:57:58;;;;;;;3.20;2.03;;;29.00;51.20;;;;;;5080892;28;20019;-72
2022/08/06 13:00:24;;;;;;;;;;;28.90;51.00;;;;;;5092601;28;20051;-72
2022/08/06 13:02:51;;;;;;;;;;;28.60;51.10;;;;;;5092572;28;19920;-72
2022/08/06 13:05:17;;;;;;;;;;;28.10;51.70;;;;;;5074966;28;20348;-71
2022/08/06 13:07:42;;;;;;;;;;;27.80;51.30;;;;;;5088385;28;19967;-71
2022/08/06 13:10:09;;;;;;;;;;;28.00;51.30;;;;;;5092546;28;20393;-72
2022/08/06 13:12:35;;;;;;;3.28;1.80;;;28.30;51.90;;;;;;5091951;28;20011;-72
2022/08/06 13:15:14;;;;;;;3.70;1.90;;;28.60;52.20;;;;;;5092210;28;20131;-72
2022/08/06 13:17:40;;;;;;;;;;;29.00;51.70;;;;;;5092343;28;20399;-72
2022/08/06 13:20:06;;;;;;;3.95;2.17;;;29.20;51.10;;;;;;5092019;28;19965;-71
2022/08/06 13:22:48;;;;;;;;;;;29.40;51.70;;;;;;5089564;28;20064;-72
2022/08/06 13:25:16;;;;;;;;;;;29.50;50.40;;;;;;5088200;28;19920;-71
2022/08/06 13:27:42;;;;;;;2.63;1.75;;;29.80;50.00;;;;;;5090979;28;19927;-71
2022/08/06 13:30:09;;;;;;;2.78;1.98;;;30.10;49.10;;;;;;5091665;28;20044;-72
2022/08/06 13:32:35;;;;;;;;;;;30.30;50.00;;;;;;5091251;28;20379;-71
2022/08/06 13:35:10;;;;;;;;;;;30.30;49.50;;;;;;5091524;28;19923;-72
2022/08/06 13:37:49;;;;;;;;;;;30.40;49.00;;;;;;5080780;28;20359;-72
2022/08/06 13:40:15;;;;;;;;;;;30.50;48.40;;;;;;5088361;28;19920;-72
2022/08/06 13:42:48;;;;;;;;;;;30.60;48.70;;;;;;5085863;28;19919;-72
2022/08/06 13:45:21;;;;;;;;;;;30.50;48.10;;;;;;5074366;28;20028;-71
2022/08/06 13:47:49;;;;;;;;;;;30.50;49.00;;;;;;5077686;28;20026;-72
2022/08/06 13:50:16;;;;;;;;;;;30.40;48.40;;;;;;5072752;28;19924;-72
2022/08/06 13:52:42;;;;;;;;;;;29.70;47.90;;;;;;5086049;28;19927;-70
2022/08/06 13:55:08;;;;;;;3.67;1.73;;;29.60;48.40;;;;;;5089950;28;19920;-70
2022/08/06 13:57:35;;;;;;;;;;;29.80;48.50;;;;;;5079268;28;20036;-70
2022/08/06 14:00:01;;;;;;;;;;;30.20;48.70;;;;;;5080184;28;19931;-70
2022/08/06 14:02:27;;;;;;;;;;;30.60;48.40;;;;;;5088414;28;19928;-70
2022/08/06 14:04:52;;;;;;;;;;;30.70;47.90;;;;;;5085865;28;20466;-70
2022/08/06 14:07:18;;;;;;;;;;;30.80;47.90;;;;;;5080299;28;19927;-72
2022/08/06 14:09:44;;;;;;;3.17;1.80;;;31.20;48.50;;;;;;5072540;28;19923;-73
2022/08/06 14:12:10;;;;;;;2.63;1.88;;;31.50;47.10;;;;;;5090772;28;20044;-73